Time;durP1;ratioP1;P1;durP2;ratioP2;P2;SDS_P1;SDS_P2;PMS_P1;PMS_P2;Temp;Humidity;BMP_temperature;BMP_pressure;BME280_temperature;BME280_humidity;BME280_pressure;Samples;Min_cycle;Max_cycle;Signal;HPM_P1;HPM_P2
2021/09/04 00:02:13;;;;;;;;;;;19.90;99.90;;;;;;4996729;28;19973;-78
2021/09/04 00:04:39;;;;;;;;;;;19.80;99.90;;;;;;4999503;28;19910;-78
2021/09/04 00:07:05;;;;;;;;;;;19.70;99.90;;;;;;4997784;28;19959;-78
2021/09/04 00:09:31;;;;;;;;;;;19.60;99.90;;;;;;5002857;28;19905;-79
2021/09/04 00:11:57;;;;;;;;;;;19.60;99.90;;;;;;5001450;28;20330;-79
2021/09/04 00:14:22;;;;;;;;;;;19.50;99.90;;;;;;4999688;28;19957;-78
2021/09/04 00:16:48;;;;;;;;;;;19.50;99.90;;;;;;4999971;28;20008;-79
2021/09/04 00:19:14;;;;;;;;;;;19.60;99.90;;;;;;5002727;28;19920;-78
2021/09/04 00:21:39;;;;;;;;;;;19.70;99.90;;;;;;5002123;28;19949;-78
2021/09/04 00:24:05;;;;;;;;;;;19.60;99.90;;;;;;4995990;28;20403;-79
2021/09/04 00:26:31;;;;;;;;;;;19.70;99.90;;;;;;5004275;28;19917;-78
2021/09/04 00:28:57;;;;;;;;;;;19.60;99.90;;;;;;5009433;28;19910;-78
2021/09/04 00:31:22;;;;;;;;;;;19.60;99.90;;;;;;5002137;28;19909;-79
2021/09/04 00:33:48;;;;;;;;;;;19.70;99.90;;;;;;4998554;28;19921;-78
2021/09/04 00:36:13;;;;;;;;;;;19.70;99.90;;;;;;5011210;28;19909;-78
2021/09/04 00:38:39;;;;;;;;;;;19.70;99.90;;;;;;5008362;28;19960;-78
2021/09/04 00:41:05;;;;;;;;;;;19.70;99.90;;;;;;5000256;28;19909;-79
2021/09/04 00:43:30;;;;;;;;;;;19.70;99.90;;;;;;4997770;28;19955;-78
2021/09/04 00:46:05;;;;;;;;;;;19.50;99.90;;;;;;4996200;28;19913;-78
2021/09/04 00:48:30;;;;;;;;;;;19.50;99.90;;;;;;5001705;28;19909;-79
2021/09/04 00:50:56;;;;;;;;;;;19.40;99.90;;;;;;5007383;28;19921;-78
2021/09/04 00:53:22;;;;;;;;;;;19.40;99.90;;;;;;4992577;28;20005;-78
2021/09/04 00:55:47;;;;;;;;;;;19.30;99.90;;;;;;5001584;28;19918;-78
2021/09/04 00:58:13;;;;;;;;;;;19.20;99.90;;;;;;5003952;28;20000;-78
2021/09/04 01:00:40;;;;;;;;;;;19.20;99.90;;;;;;5004954;28;19933;-78
2021/09/04 01:03:06;;;;;;;;;;;19.20;99.90;;;;;;5007582;28;19925;-78
2021/09/04 01:05:32;;;;;;;;;;;19.20;99.90;;;;;;4996426;28;20360;-78
2021/09/04 01:07:58;;;;;;;;;;;19.30;99.90;;;;;;4995654;28;19928;-78
2021/09/04 01:10:23;;;;;;;;;;;19.40;99.90;;;;;;4999502;28;20252;-78
2021/09/04 01:12:49;;;;;;;;;;;19.60;99.90;;;;;;5002169;28;19920;-78
2021/09/04 01:15:15;;;;;;;;;;;19.60;99.90;;;;;;5002362;28;19909;-78
2021/09/04 01:17:41;;;;;;;;;;;19.60;99.90;;;;;;5006485;28;19917;-78
2021/09/04 01:20:07;;;;;;;;;;;19.70;99.90;;;;;;5008869;28;19917;-78
2021/09/04 01:22:40;;;;;;;;;;;19.70;99.90;;;;;;5118332;27;19923;-79
2021/09/04 01:25:07;;;;;;;;;;;19.70;99.90;;;;;;5122807;28;19919;-79
2021/09/04 01:27:34;;;;;;;;;;;19.70;99.90;;;;;;5116984;28;19912;-79
2021/09/04 01:30:01;;;;;;;;;;;19.60;99.90;;;;;;5120400;28;19912;-79
2021/09/04 01:32:27;;;;;;;;;;;19.60;99.90;;;;;;5114772;28;19912;-79
2021/09/04 01:34:52;;;;;;;;;;;19.60;99.90;;;;;;5113969;28;19916;-79
2021/09/04 01:37:18;;;;;;;;;;;19.60;99.90;;;;;;5119867;28;19912;-79
2021/09/04 01:39:44;;;;;;;;;;;19.70;99.90;;;;;;5116674;28;21608;-80
2021/09/04 01:42:09;;;;;;;;;;;19.70;99.90;;;;;;5114945;28;20003;-80
2021/09/04 01:44:36;;;;;;;;;;;19.60;99.90;;;;;;5109743;28;19982;-79
2021/09/04 01:47:02;;;;;;;;;;;19.60;99.90;;;;;;5119439;28;19916;-79
2021/09/04 01:49:28;;;;;;;;;;;19.60;99.90;;;;;;5109287;28;19912;-81
2021/09/04 01:51:53;;;;;;;;;;;19.60;99.90;;;;;;5117728;28;19987;-80
2021/09/04 01:54:19;;;;;;;;;;;19.70;99.90;;;;;;5111762;28;19951;-80
2021/09/04 01:56:45;;;;;;;;;;;19.70;99.90;;;;;;5111741;28;19920;-79
2021/09/04 01:59:10;;;;;;;;;;;19.80;99.90;;;;;;5099610;28;19912;-79
2021/09/04 02:01:36;;;;;;;;;;;19.80;99.90;;;;;;5109441;28;19923;-80
2021/09/04 02:04:02;;;;;;;;;;;19.80;99.90;;;;;;5108764;28;19962;-79
2021/09/04 02:06:29;;;;;;;;;;;19.80;99.90;;;;;;5111969;28;19963;-79
2021/09/04 02:08:55;;;;;;;;;;;19.90;99.90;;;;;;5104684;28;19912;-79
2021/09/04 02:11:20;;;;;;;;;;;19.90;99.90;;;;;;5108404;28;19922;-79
2021/09/04 02:13:46;;;;;;;;;;;19.90;99.90;;;;;;5119265;28;19966;-79
2021/09/04 02:16:12;;;;;;;;;;;19.90;99.90;;;;;;5117018;28;19920;-79
2021/09/04 02:18:37;;;;;;;;;;;19.80;99.90;;;;;;5108252;28;19966;-79
2021/09/04 02:21:03;;;;;;;;;;;19.70;99.90;;;;;;5114758;28;19998;-79
2021/09/04 02:23:29;;;;;;;;;;;19.60;99.90;;;;;;5098450;28;19916;-79
2021/09/04 02:25:54;;;;;;;;;;;19.60;99.90;;;;;;5117660;28;19916;-79
2021/09/04 02:28:20;;;;;;;;;;;19.40;99.90;;;;;;5101030;28;19916;-79
2021/09/04 02:30:46;;;;;;;;;;;19.20;99.90;;;;;;5114833;28;20003;-79
2021/09/04 02:33:11;;;;;;;;;;;19.20;99.90;;;;;;5108775;28;19912;-79
2021/09/04 02:35:38;;;;;;;;;;;19.10;99.90;;;;;;5095891;28;19908;-79
2021/09/04 02:38:03;;;;;;;;;;;19.00;99.90;;;;;;5102475;28;19958;-79
2021/09/04 02:40:29;;;;;;;;;;;18.90;99.90;;;;;;5101809;28;19908;-80
2021/09/04 02:42:55;;;;;;;;;;;18.80;99.90;;;;;;5102697;28;19913;-80
2021/09/04 02:45:20;;;;;;;;;;;18.70;99.90;;;;;;5086597;28;20408;-80
2021/09/04 02:47:46;;;;;;;;;;;18.70;99.90;;;;;;5102109;28;19916;-79
2021/09/04 02:50:12;;;;;;;;;;;18.70;99.90;;;;;;5086968;28;20003;-80
2021/09/04 02:52:37;;;;;;;;;;;18.80;99.90;;;;;;5101943;28;19922;-79
2021/09/04 02:55:03;;;;;;;;;;;18.80;99.90;;;;;;5102203;28;19915;-79
2021/09/04 02:57:29;;;;;;;;;;;18.80;99.90;;;;;;5091912;28;19927;-79
2021/09/04 02:59:55;;;;;;;;;;;18.80;99.90;;;;;;5099102;28;19994;-79
2021/09/04 03:02:21;;;;;;;;;;;18.90;99.90;;;;;;5083766;28;19916;-79
2021/09/04 03:04:46;;;;;;;;;;;18.80;99.90;;;;;;5088854;28;19913;-79
2021/09/04 03:07:12;;;;;;;;;;;18.70;99.90;;;;;;5094417;28;19912;-79
2021/09/04 03:09:37;;;;;;;;;;;18.70;99.90;;;;;;5088184;28;19912;-79
2021/09/04 03:12:04;;;;;;;;;;;18.70;99.90;;;;;;5094889;28;19908;-79
2021/09/04 03:14:29;;;;;;;;;;;18.60;99.90;;;;;;5094151;28;19970;-79
2021/09/04 03:16:55;;;;;;;;;;;18.60;99.90;;;;;;5100448;28;20361;-79
2021/09/04 03:19:21;;;;;;;;;;;18.60;99.90;;;;;;5089506;28;20335;-80
2021/09/04 03:21:47;;;;;;;;;;;18.70;99.90;;;;;;5102045;28;19924;-79
2021/09/04 03:24:13;;;;;;;;;;;18.80;99.90;;;;;;5103029;28;19912;-79
2021/09/04 03:26:38;;;;;;;;;;;18.80;99.90;;;;;;5099147;28;19957;-79
2021/09/04 03:29:04;;;;;;;;;;;19.10;99.90;;;;;;5099768;28;19912;-79
2021/09/04 03:31:30;;;;;;;;;;;19.20;99.90;;;;;;5103605;28;19923;-79
2021/09/04 03:33:55;;;;;;;;;;;19.20;99.90;;;;;;5100961;28;19912;-80
2021/09/04 03:36:21;;;;;;;;;;;19.10;99.90;;;;;;5106214;28;19908;-80
2021/09/04 03:38:47;;;;;;;;;;;19.10;99.90;;;;;;5103035;28;19912;-80
2021/09/04 03:41:13;;;;;;;;;;;19.00;99.90;;;;;;5102982;28;19919;-80
2021/09/04 03:43:38;;;;;;;;;;;18.90;99.90;;;;;;5092882;28;19913;-80
2021/09/04 03:46:04;;;;;;;;;;;18.90;99.90;;;;;;5103171;28;19912;-80
2021/09/04 03:48:29;;;;;;;;;;;18.80;99.90;;;;;;5102762;28;19970;-79
2021/09/04 03:50:55;;;;;;;;;;;18.70;99.90;;;;;;5104657;28;19931;-79
2021/09/04 03:53:21;;;;;;;;;;;18.60;99.90;;;;;;5090962;28;20468;-80
2021/09/04 03:55:46;;;;;;;;;;;18.60;99.90;;;;;;5105620;28;19955;-82
2021/09/04 03:58:12;;;;;;;;;;;18.70;99.90;;;;;;5092818;28;19909;-80
2021/09/04 04:00:38;;;;;;;;;;;18.70;99.90;;;;;;5096917;28;19916;-80
2021/09/04 04:03:04;;;;;;;;;;;18.70;99.90;;;;;;5105115;28;20410;-80
2021/09/04 04:05:29;;;;;;;;;;;18.60;99.90;;;;;;5103299;28;19912;-80
2021/09/04 04:07:55;;;;;;;;;;;18.70;99.90;;;;;;5092793;28;19922;-80
2021/09/04 04:10:21;;;;;;;;;;;18.70;99.90;;;;;;5103478;28;19913;-80
2021/09/04 04:12:46;;;;;;;;;;;18.80;99.90;;;;;;5104189;28;20451;-80
2021/09/04 04:15:12;;;;;;;;;;;18.70;99.90;;;;;;5100480;28;19956;-80
2021/09/04 04:17:38;;;;;;;;;;;18.70;99.90;;;;;;5105593;28;20426;-80
2021/09/04 04:20:04;;;;;;;;;;;18.80;99.90;;;;;;5099544;28;19959;-79
2021/09/04 04:22:29;;;;;;;;;;;18.90;99.90;;;;;;5104187;28;19916;-80
2021/09/04 04:24:55;;;;;;;;;;;19.00;99.90;;;;;;5103104;28;20361;-80
2021/09/04 04:27:21;;;;;;;;;;;19.00;99.90;;;;;;5104819;28;19908;-80
2021/09/04 04:29:47;;;;;;;;;;;19.00;99.90;;;;;;5093607;28;19916;-80
2021/09/04 04:32:12;;;;;;;;;;;19.10;99.90;;;;;;5103664;28;19939;-80
2021/09/04 04:34:38;;;;;;;;;;;19.10;99.90;;;;;;5097920;28;19943;-79
2021/09/04 04:37:04;;;;;;;;;;;19.20;99.90;;;;;;5100625;28;19913;-80
2021/09/04 04:39:30;;;;;;;;;;;19.20;99.90;;;;;;5104558;28;19919;-80
2021/09/04 04:41:58;;;;;;;;;;;19.20;99.90;;;;;;5100675;28;19943;-80
2021/09/04 04:44:24;;;;;;;;;;;19.10;99.90;;;;;;5101261;28;19919;-80
2021/09/04 04:46:50;;;;;;;;;;;19.10;99.90;;;;;;5101879;28;19916;-80
2021/09/04 04:49:16;;;;;;;;;;;19.20;99.90;;;;;;5103480;28;20341;-80
2021/09/04 04:51:41;;;;;;;;;;;19.20;99.90;;;;;;5096888;28;20297;-80
2021/09/04 04:54:10;;;;;;;;;;;19.30;99.90;;;;;;5101878;28;19919;-80
2021/09/04 04:56:35;;;;;;;;;;;19.30;99.90;;;;;;5102775;28;19915;-80
2021/09/04 04:59:01;;;;;;;;;;;19.30;99.90;;;;;;5086951;28;19951;-80
2021/09/04 05:01:27;;;;;;;;;;;19.30;99.90;;;;;;5096979;28;19916;-79
2021/09/04 05:03:53;;;;;;;;;;;19.40;99.90;;;;;;5100412;28;19918;-80
2021/09/04 05:06:18;;;;;;;;;;;19.40;99.90;;;;;;5099793;28;19912;-80
2021/09/04 05:08:44;;;;;;;;;;;19.50;99.90;;;;;;5096270;28;19912;-79
2021/09/04 05:11:09;;;;;;;;;;;19.60;99.90;;;;;;5093985;28;19912;-80
2021/09/04 05:13:35;;;;;;;;;;;19.50;99.90;;;;;;5098680;28;19913;-79
2021/09/04 05:16:01;;;;;;;;;;;19.50;99.90;;;;;;5096670;28;20005;-80
2021/09/04 05:18:26;;;;;;;;;;;19.50;99.90;;;;;;5099528;28;20274;-79
2021/09/04 05:20:52;;;;;;;;;;;19.50;99.90;;;;;;5089484;28;19920;-80
2021/09/04 05:23:19;;;;;;;;;;;19.50;99.90;;;;;;5096348;28;19908;-79
2021/09/04 05:25:44;;;;;;;;;;;19.60;99.90;;;;;;5087601;28;19912;-79
2021/09/04 05:28:10;;;;;;;;;;;19.60;99.90;;;;;;5097533;28;20369;-79
2021/09/04 05:30:36;;;;;;;;;;;19.70;99.90;;;;;;5088991;28;19920;-79
2021/09/04 05:33:01;;;;;;;;;;;19.70;99.90;;;;;;5108091;28;19998;-79
2021/09/04 05:35:27;;;;;;;;;;;19.80;99.90;;;;;;5109200;28;19912;-80
2021/09/04 05:37:53;;;;;;;;;;;19.80;99.90;;;;;;5101790;28;19921;-80
2021/09/04 05:40:18;;;;;;;;;;;19.90;99.90;;;;;;5086632;28;19912;-77
2021/09/04 05:42:44;;;;;;;;;;;19.80;99.90;;;;;;5094549;28;19938;-75
2021/09/04 05:45:10;;;;;;;;;;;19.70;99.90;;;;;;5093378;28;19912;-76
2021/09/04 05:47:36;;;;;;;;;;;19.70;99.90;;;;;;5097611;28;19908;-78
2021/09/04 05:50:03;;;;;;;;;;;19.80;99.90;;;;;;5108585;28;19916;-76
2021/09/04 05:52:29;;;;;;;;;;;19.80;99.90;;;;;;5104634;28;19956;-77
2021/09/04 05:54:55;;;;;;;;;;;19.90;99.90;;;;;;5107066;28;19912;-77
2021/09/04 05:57:21;;;;;;;;;;;20.00;99.90;;;;;;5105540;28;19919;-75
2021/09/04 05:59:47;;;;;;;;;;;20.00;99.90;;;;;;5102984;28;19901;-79
2021/09/04 06:02:13;;;;;;;;;;;20.10;99.90;;;;;;5104220;28;19916;-77
2021/09/04 06:04:39;;;;;;;;;;;20.20;99.90;;;;;;5104050;28;19922;-78
2021/09/04 06:07:11;;;;;;;;;;;20.20;99.90;;;;;;5101654;28;20000;-78
2021/09/04 06:09:36;;;;;;;;;;;20.30;99.90;;;;;;5106317;28;19950;-75
2021/09/04 06:12:02;;;;;;;;;;;20.30;99.90;;;;;;5106995;28;19943;-79
2021/09/04 06:14:28;;;;;;;;;;;20.40;99.90;;;;;;5105556;28;20613;-78
2021/09/04 06:16:55;;;;;;;;;;;20.50;99.90;;;;;;5106814;28;20014;-78
2021/09/04 06:19:21;;;;;;;;;;;20.50;99.90;;;;;;5096055;28;20405;-78
2021/09/04 06:21:47;;;;;;;;;;;20.60;99.90;;;;;;5101352;28;19920;-78
2021/09/04 06:24:13;;;;;;;;;;;20.70;99.90;;;;;;5103102;28;19975;-77
2021/09/04 06:26:39;;;;;;;;;;;20.80;99.90;;;;;;5112467;28;19919;-78
2021/09/04 06:29:04;;;;;;;;;;;20.80;99.90;;;;;;5109085;28;19973;-77
2021/09/04 06:31:30;;;;;;;;;;;20.80;99.90;;;;;;5108476;28;19913;-77
2021/09/04 06:33:56;;;;;;;;;;;20.90;99.90;;;;;;5102230;28;20058;-75
2021/09/04 06:36:22;;;;;;;;;;;21.00;99.90;;;;;;5108975;28;19919;-75
2021/09/04 06:38:57;;;;;;;;;;;21.10;99.90;;;;;;5110068;28;20319;-78
2021/09/04 06:41:23;;;;;;;;;;;21.20;99.90;;;;;;5109584;28;19904;-78
2021/09/04 06:43:48;;;;;;;;;;;21.40;99.90;;;;;;5116601;28;19930;-76
2021/09/04 06:46:14;;;;;;;;;;;21.50;99.90;;;;;;5117811;28;19930;-76
2021/09/04 06:48:39;;;;;;;;;;;21.60;99.90;;;;;;5118163;28;19935;-75
2021/09/04 06:51:05;;;;;;;;;;;21.80;99.90;;;;;;5117318;28;19916;-77
2021/09/04 06:53:31;;;;;;;;;;;21.80;99.90;;;;;;5111174;28;19934;-76
2021/09/04 06:55:56;;;;;;;;;;;21.90;99.90;;;;;;5111144;28;19912;-77
2021/09/04 06:58:22;;;;;;;;;;;22.00;99.90;;;;;;5106961;28;20195;-78
2021/09/04 07:00:48;;;;;;;;;;;22.10;99.90;;;;;;5116578;28;19920;-76
2021/09/04 07:03:13;;;;;;;;;;;22.20;99.90;;;;;;5118849;28;19982;-75
2021/09/04 07:05:42;;;;;;;;;;;22.40;99.90;;;;;;5117338;28;19900;-75
2021/09/04 07:08:08;;;;;;;;;;;22.50;99.90;;;;;;5118296;28;19920;-75
2021/09/04 07:10:33;;;;;;;;;;;22.60;99.90;;;;;;5107132;28;19912;-79
2021/09/04 07:12:59;;;;;;;;;;;22.60;99.90;;;;;;5107690;28;19912;-78
2021/09/04 07:15:25;;;;;;;;;;;22.70;99.90;;;;;;5101343;28;20023;-79
2021/09/04 07:17:50;;;;;;;;;;;22.80;99.90;;;;;;5101787;28;19951;-79
2021/09/04 07:20:16;;;;;;;;;;;22.80;99.90;;;;;;5101714;28;19915;-78
2021/09/04 07:22:41;;;;;;;;;;;22.90;99.90;;;;;;5106162;28;19923;-78
2021/09/04 07:25:07;;;;;;;;;;;23.00;99.90;;;;;;5109479;28;19918;-82
2021/09/04 07:27:33;;;;;;;;;;;23.10;99.90;;;;;;5110008;28;19912;-79
2021/09/04 07:29:58;;;;;;;;;;;23.30;99.90;;;;;;5108869;28;19912;-77
2021/09/04 07:32:24;;;;;;;;;;;23.30;99.90;;;;;;5115229;28;19920;-77
2021/09/04 07:34:50;;;;;;;;;;;23.30;99.90;;;;;;5104589;28;19942;-75
2021/09/04 07:37:15;;;;;;;;;;;23.50;99.90;;;;;;5105877;28;19931;-79
2021/09/04 07:39:41;;;;;;;;;;;23.60;99.90;;;;;;5107895;28;19969;-77
2021/09/04 07:42:06;;;;;;;;;;;23.70;99.90;;;;;;5108637;28;20483;-77
2021/09/04 07:44:32;;;;;;;;;;;23.80;99.90;;;;;;5108143;28;19912;-79
2021/09/04 07:46:58;;;;;;;;;;;23.80;99.90;;;;;;5110496;28;19916;-75
2021/09/04 07:49:23;;;;;;;;;;;23.90;99.90;;;;;;5109184;28;19912;-77
2021/09/04 07:51:49;;;;;;;;;;;23.90;99.90;;;;;;5110167;28;19916;-81
2021/09/04 07:54:14;;;;;;;;;;;24.00;99.90;;;;;;5109058;28;19973;-76
2021/09/04 07:56:40;;;;;;;;;;;24.00;99.90;;;;;;5109108;28;19908;-75
2021/09/04 07:59:06;;;;;;;;;;;24.00;99.90;;;;;;5106841;28;19927;-78
2021/09/04 08:01:33;;;;;;;;;;;24.10;99.90;;;;;;5108698;28;20071;-78
2021/09/04 08:03:59;;;;;;;;;;;24.10;99.90;;;;;;5103646;28;20400;-76
2021/09/04 08:06:25;;;;;;;;;;;24.10;99.90;;;;;;5105275;28;19912;-76
2021/09/04 08:08:50;;;;;;;;;;;24.10;99.90;;;;;;5101992;28;19985;-77
2021/09/04 08:11:18;;;;;;;;;;;24.10;99.90;;;;;;5105855;28;20388;-78
2021/09/04 08:13:44;;;;;;;;;;;24.20;99.90;;;;;;5102243;28;19955;-78
2021/09/04 08:16:09;;;;;;;;;;;24.30;99.90;;;;;;5095047;28;19912;-75
2021/09/04 08:18:35;;;;;;;;;;;24.40;99.90;;;;;;5102610;28;19913;-76
2021/09/04 08:21:00;;;;;;;;;;;24.40;99.90;;;;;;5102661;28;19967;-78
2021/09/04 08:23:26;;;;;;;;;;;24.40;99.90;;;;;;5104277;28;19908;-76
2021/09/04 08:25:52;;;;;;;;;;;24.50;99.90;;;;;;5098684;28;19981;-75
2021/09/04 08:28:17;;;;;;;;;;;24.50;99.90;;;;;;5102151;28;20356;-75
2021/09/04 08:30:43;;;;;;;;;;;24.60;99.90;;;;;;5103979;28;20382;-77
2021/09/04 08:33:09;;;;;;;;;;;24.70;99.90;;;;;;5100638;28;19912;-76
2021/09/04 08:35:34;;;;;;;;;;;24.70;99.90;;;;;;5104996;28;19919;-78
2021/09/04 08:38:06;;;;;;;;;;;24.70;99.90;;;;;;5089579;28;19919;-76
2021/09/04 08:40:32;;;;;;;;;;;24.80;99.90;;;;;;5100855;28;20458;-78
2021/09/04 08:42:59;;;;;;;;;;;24.90;99.90;;;;;;5103812;28;19916;-82
2021/09/04 08:45:24;;;;;;;;;;;25.00;99.90;;;;;;5091346;28;19912;-76
2021/09/04 08:47:51;;;;;;;;;;;25.00;99.90;;;;;;5105107;28;19915;-78
2021/09/04 08:50:18;;;;;;;;;;;24.80;99.90;;;;;;5103918;28;19912;-81
2021/09/04 08:52:44;;;;;;;;;;;24.80;99.90;;;;;;5106586;28;19908;-78
2021/09/04 08:55:09;;;;;;;;;;;24.90;99.90;;;;;;5104873;28;20395;-77
2021/09/04 08:57:35;;;;;;;;;;;25.10;99.90;;;;;;5106856;28;19919;-77
2021/09/04 09:00:01;;;;;;;;;;;25.20;99.90;;;;;;5105589;28;20419;-78
2021/09/04 09:02:28;;;;;;;;;;;25.20;99.90;;;;;;5105852;28;19938;-76
2021/09/04 09:05:19;;;;;;;;;;;25.20;99.90;;;;;;5106987;28;19919;-77
2021/09/04 09:07:46;;;;;;;;;;;25.20;99.90;;;;;;5106266;28;19943;-77
2021/09/04 09:10:32;;;;;;;;;;;25.30;99.90;;;;;;5102826;28;20182;-78
2021/09/04 09:12:58;;;;;;;;;;;25.30;99.90;;;;;;5107039;28;19994;-78
2021/09/04 09:15:25;;;;;;;;;;;25.30;99.90;;;;;;5107176;28;19975;-77
2021/09/04 09:17:57;;;;;;;;;;;25.40;99.90;;;;;;5104656;28;19912;-78
2021/09/04 09:20:23;;;;;;;;;;;25.50;99.90;;;;;;5105027;28;19955;-78
2021/09/04 09:22:49;;;;;;;;;;;25.50;99.90;;;;;;5105869;28;19912;-77
2021/09/04 09:25:15;;;;;;;;;;;25.60;99.90;;;;;;5104592;28;19912;-76
2021/09/04 09:28:00;;;;;;;;;;;25.70;99.90;;;;;;5105917;28;19908;-76
2021/09/04 09:30:30;;;;;;;;;;;25.80;99.90;;;;;;5093395;28;19912;-77
2021/09/04 09:32:56;;;;;;;;;;;25.90;99.90;;;;;;5100924;28;19912;-78
2021/09/04 09:35:31;;;;;;;;;;;25.90;99.90;;;;;;5105407;28;19912;-76
2021/09/04 09:37:57;;;;;;;;;;;26.00;99.90;;;;;;5102916;28;19975;-77
2021/09/04 09:40:23;;;;;;;;;;;25.90;99.90;;;;;;5104487;28;19920;-76
2021/09/04 09:42:49;;;;;;;;;;;25.50;99.90;;;;;;5106593;28;19920;-77
2021/09/04 09:45:15;;;;;;;;;;;25.40;99.90;;;;;;5109621;28;19982;-77
2021/09/04 09:47:53;;;;;;;;;;;25.10;99.90;;;;;;5106224;28;19912;-77
2021/09/04 09:50:18;;;;;;;;;;;24.80;99.90;;;;;;5108314;28;19921;-77
2021/09/04 09:52:45;;;;;;;;;;;24.50;99.90;;;;;;5110564;28;19976;-75
2021/09/04 09:55:11;;;;;;;;;;;24.40;99.90;;;;;;5099184;28;20357;-79
2021/09/04 09:57:39;;;;;;;;;;;24.20;99.90;;;;;;5107126;28;20013;-77
2021/09/04 10:00:05;;;;;;;;;;;24.20;99.90;;;;;;5103427;28;19913;-77
2021/09/04 10:02:31;;;;;;;;;;;24.20;99.90;;;;;;5110199;28;19917;-80
2021/09/04 10:05:00;;;;;;;;;;;24.20;99.90;;;;;;5097649;28;20412;-78
2021/09/04 10:07:26;;;;;;;;;;;24.20;99.90;;;;;;5106288;28;19916;-77
2021/09/04 10:09:52;;;;;;;;;;;24.20;99.90;;;;;;5102864;28;19916;-77
2021/09/04 10:12:18;;;;;;;;;;;24.10;99.90;;;;;;5110338;28;19908;-78
2021/09/04 10:14:45;;;;;;;;;;;24.20;99.90;;;;;;5106364;28;19912;-77
2021/09/04 10:17:11;;;;;;;;;;;24.20;99.90;;;;;;5109633;28;19904;-76
2021/09/04 10:19:38;;;;;;;;;;;24.20;99.90;;;;;;5101185;28;19928;-75
2021/09/04 10:22:12;;;;;;;;;;;24.20;99.90;;;;;;5107339;28;19978;-77
2021/09/04 10:24:46;;;;;;;;;;;24.10;99.90;;;;;;5108015;28;19922;-78
2021/09/04 10:27:13;;;;;;;;;;;24.20;99.90;;;;;;5109587;28;19908;-77
2021/09/04 10:29:43;;;;;;;;;;;24.20;99.90;;;;;;5106703;28;19912;-77
2021/09/04 10:32:13;;;;;;;;;;;24.30;99.90;;;;;;5107995;28;19912;-81
2021/09/04 10:34:40;;;;;;;;;;;24.30;99.90;;;;;;5106704;28;19912;-77
2021/09/04 10:37:17;;;;;;;;;;;24.30;99.90;;;;;;5107778;28;19922;-78
2021/09/04 10:39:49;;;;;;;;;;;24.10;99.90;;;;;;5108773;28;20312;-76
2021/09/04 10:42:28;;;;;;;;;;;24.20;99.90;;;;;;5107292;28;19916;-80
2021/09/04 10:45:01;;;;;;;;;;;24.30;99.90;;;;;;5108422;28;19920;-78
2021/09/04 10:47:31;;;;;;;;;;;24.20;99.90;;;;;;5099724;28;19987;-77
2021/09/04 10:53:02;;;;;;;;;;;24.30;99.90;;;;;;5108894;28;19923;-78
2021/09/04 10:55:27;;;;;;;;;;;24.30;99.90;;;;;;5108666;28;19934;-77
2021/09/04 10:57:54;;;;;;;;;;;24.40;99.90;;;;;;5110407;28;19908;-77
2021/09/04 11:00:24;;;;;;;;;;;24.40;99.90;;;;;;5108843;28;19912;-77
2021/09/04 11:03:06;;;;;;;;;;;24.40;99.90;;;;;;5105715;28;19955;-76
2021/09/04 11:05:40;;;;;;;;;;;24.40;99.90;;;;;;5102252;28;19919;-78
2021/09/04 11:08:27;;;;;;;;;;;24.30;99.90;;;;;;5097075;28;20612;-77
2021/09/04 11:11:12;;;;;;;;;;;24.30;99.90;;;;;;5093793;28;19966;-78
2021/09/04 11:13:42;;;;;;;;;;;24.40;99.90;;;;;;5104247;28;19912;-77
2021/09/04 11:16:35;;;;;;;;;;;24.30;99.90;;;;;;5103123;28;19948;-77
2021/09/04 11:19:12;;;;;;;;;;;24.50;99.90;;;;;;5104420;28;20005;-77
2021/09/04 11:22:18;;;;;;;;;;;24.60;99.90;;;;;;5107176;28;19916;-78
2021/09/04 11:24:54;;;;;;;;;;;;;;;;;;;;;
2021/09/04 11:27:23;;;;;;;;;;;24.60;99.90;;;;;;5107773;28;19958;-78
2021/09/04 11:30:13;;;;;;;;;;;24.60;99.90;;;;;;5107473;28;19926;-74
2021/09/04 11:35:49;;;;;;;;;;;24.60;99.90;;;;;;5099478;28;19920;-77
2021/09/04 11:38:28;;;;;;;;;;;24.70;99.90;;;;;;5107946;28;19989;-78
2021/09/04 11:41:00;;;;;;;;;;;24.70;99.90;;;;;;5109314;28;19919;-76
2021/09/04 11:50:06;;;;;;;;;;;;;;;;;;;;;
2021/09/04 11:52:23;;;;;;;;;;;24.50;99.90;;;;;;5104405;28;19916;-78
2021/09/04 11:54:50;;;;;;;;;;;24.50;99.90;;;;;;5108333;28;19912;-77
2021/09/04 11:57:44;;;;;;;;;;;24.60;99.90;;;;;;5103030;28;19919;-76
2021/09/04 12:03:28;;;;;;;;;;;24.90;99.90;;;;;;5112544;28;19948;-75
2021/09/04 12:06:33;;;;;;;;;;;25.10;99.90;;;;;;5113479;28;19923;-76
2021/09/04 12:09:01;;;;;;;;;;;24.90;99.90;;;;;;5069975;28;19931;-76
2021/09/04 12:11:33;;;;;;;;;;;25.00;99.90;;;;;;5116218;28;20394;-76
2021/09/04 12:14:06;;;;;;;;;;;25.00;99.90;;;;;;5109452;28;19904;-76
2021/09/04 12:16:37;;;;;;;;;;;25.00;99.90;;;;;;5115841;28;19918;-75
2021/09/04 12:25:51;;;;;;;;;;;25.00;99.90;;;;;;5106832;28;19946;-76
2021/09/04 12:28:25;;;;;;;;;;;25.10;99.90;;;;;;5108266;28;19897;-78
2021/09/04 12:31:06;;;;;;;;;;;;;;;;;;;;;
2021/09/04 12:34:20;;;;;;;;;;;24.90;99.90;;;;;;5100260;28;19944;-79
2021/09/04 12:37:20;;;;;;;;;;;24.90;99.90;;;;;;5109093;28;20029;-78
2021/09/04 12:42:34;;;;;;;;;;;24.90;99.90;;;;;;5089774;28;19919;-77
2021/09/04 12:45:07;;;;;;;;;;;24.90;99.90;;;;;;5087947;28;19916;-76
2021/09/04 12:47:43;;;;;;;;;;;25.00;99.90;;;;;;5109104;28;19916;-78
2021/09/04 12:50:19;;;;;;;;;;;25.00;99.90;;;;;;5106446;28;20018;-76
2021/09/04 12:52:45;;;;;;;;;;;25.10;99.90;;;;;;5110806;28;19965;-77
2021/09/04 12:55:13;;;;;;;;;;;25.00;99.90;;;;;;5107754;28;19912;-76
2021/09/04 12:57:38;;;;;;;;;;;24.90;99.90;;;;;;5105882;28;19947;-77
2021/09/04 13:00:04;;;;;;;;;;;24.70;99.90;;;;;;5109218;28;20274;-78
2021/09/04 13:02:50;;;;;;;;;;;24.60;99.90;;;;;;5105734;28;19984;-76
2021/09/04 13:05:16;;;;;;;;;;;24.60;99.90;;;;;;5107091;28;19915;-78
2021/09/04 13:07:49;;;;;;;;;;;24.60;99.90;;;;;;5107935;28;19920;-76
2021/09/04 13:10:19;;;;;;;;;;;24.60;99.90;;;;;;5109566;28;19912;-76
2021/09/04 13:12:48;;;;;;;;;;;24.70;99.90;;;;;;5110410;28;19942;-78
2021/09/04 13:15:17;;;;;;;;;;;24.60;99.90;;;;;;5109769;28;20017;-76
2021/09/04 13:17:43;;;;;;;;;;;24.50;99.90;;;;;;5110190;28;19912;-80
2021/09/04 13:20:10;;;;;;;;;;;24.60;99.90;;;;;;5107033;28;19916;-78
2021/09/04 13:22:39;;;;;;;;;;;24.80;99.90;;;;;;5110433;28;19938;-79
2021/09/04 13:25:15;;;;;;;;;;;24.80;99.90;;;;;;5109586;28;19912;-78
2021/09/04 13:27:41;;;;;;;;;;;24.90;99.90;;;;;;5101826;28;19961;-78
2021/09/04 13:30:10;;;;;;;;;;;24.80;99.90;;;;;;5091710;28;19927;-80
2021/09/04 13:32:36;;;;;;;;;;;24.80;99.90;;;;;;5093441;28;19912;-78
2021/09/04 13:35:02;;;;;;;;;;;24.70;99.90;;;;;;5092447;28;19937;-78
2021/09/04 13:37:28;;;;;;;;;;;24.70;99.90;;;;;;5095194;28;20045;-78
2021/09/04 13:39:56;;;;;;;;;;;24.80;99.90;;;;;;5095407;28;19924;-79
2021/09/04 13:42:26;;;;;;;;;;;25.00;99.90;;;;;;5093837;28;19919;-78
2021/09/04 13:44:52;;;;;;;;;;;25.10;99.90;;;;;;5086398;28;19912;-79
2021/09/04 13:47:50;;;;;;;;;;;25.30;99.90;;;;;;5087460;28;20367;-79
2021/09/04 13:50:15;;;;;;;;;;;25.40;99.90;;;;;;5086029;28;19957;-78
2021/09/04 13:52:41;;;;;;;;;;;25.50;99.90;;;;;;5091004;28;19912;-79
2021/09/04 13:55:07;;;;;;;;;;;25.40;99.90;;;;;;5094265;28;19912;-78
2021/09/04 13:57:32;;;;;;;;;;;25.60;99.90;;;;;;5092634;28;19947;-79
2021/09/04 13:59:58;;;;;;;;;;;25.60;99.90;;;;;;5095423;28;19908;-79
2021/09/04 14:02:24;;;;;;;;;;;25.80;99.90;;;;;;5090460;28;19922;-78
2021/09/04 14:04:49;;;;;;;;;;;25.90;99.90;;;;;;5099899;28;19916;-79
2021/09/04 14:07:15;;;;;;;;;;;25.70;99.90;;;;;;5102565;28;19939;-79
2021/09/04 14:09:40;;;;;;;;;;;25.60;99.90;;;;;;5099150;28;19919;-79
2021/09/04 14:12:06;;;;;;;;;;;25.60;99.90;;;;;;5108848;28;19920;-77
2021/09/04 14:14:32;;;;;;;;;;;25.60;99.90;;;;;;5106655;28;19916;-77
2021/09/04 14:16:58;;;;;;;;;;;25.70;99.90;;;;;;5100224;28;20429;-80
2021/09/04 14:19:24;;;;;;;;;;;26.00;99.90;;;;;;5106999;28;19908;-78
2021/09/04 14:22:19;;;;;;;;;;;25.90;99.90;;;;;;5092420;28;19908;-79
2021/09/04 14:24:45;;;;;;;;;;;25.80;99.90;;;;;;5091152;28;19938;-76
2021/09/04 14:27:11;;;;;;;;;;;25.60;99.90;;;;;;5103060;28;19912;-78
2021/09/04 14:29:44;;;;;;;;;;;25.70;99.90;;;;;;5109138;28;19966;-76
2021/09/04 14:32:17;;;;;;;;;;;25.90;99.90;;;;;;5111877;28;19913;-79
2021/09/04 14:34:46;;;;;;;;;;;26.00;99.90;;;;;;5109450;28;19912;-75
2021/09/04 14:37:11;;;;;;;;;;;26.00;99.90;;;;;;5107047;28;19920;-79
2021/09/04 14:39:37;;;;;;;;;;;26.00;99.90;;;;;;5110111;28;19908;-78
2021/09/04 14:42:03;;;;;;;;;;;26.10;99.90;;;;;;5105457;28;19924;-77
2021/09/04 14:44:29;;;;;;;;;;;26.10;99.90;;;;;;5110716;28;19934;-78
2021/09/04 14:46:55;;;;;;;;;;;26.20;99.90;;;;;;5109620;28;19938;-77
2021/09/04 14:49:20;;;;;;;;;;;26.00;99.90;;;;;;5112500;28;20001;-79
2021/09/04 14:51:46;;;;;;;;;;;25.90;99.90;;;;;;5112244;28;19908;-78